Time;durP1;ratioP1;P1;durP2;ratioP2;P2;SDS_P1;SDS_P2;PMS_P1;PMS_P2;Temp;Humidity;BMP_temperature;BMP_pressure;BME280_temperature;BME280_humidity;BME280_pressure;Samples;Min_cycle;Max_cycle;Signal;HPM_P1;HPM_P2
2023/08/20 00:01:24;;;;;;;9.15;6.30;;;;;;;21.52;100.00;98080.91;18231313;32;19945;-51
2023/08/20 00:11:27;;;;;;;6.60;5.93;;;;;;;21.41;100.00;98068.69;18232345;32;20100;-50
2023/08/20 00:21:30;;;;;;;9.13;6.68;;;;;;;21.36;100.00;98071.59;18230469;32;20372;-54
2023/08/20 00:31:33;;;;;;;;;;;;;;;21.24;100.00;98069.56;18231519;32;20077;-53
2023/08/20 00:41:36;;;;;;;6.90;6.20;;;;;;;21.12;100.00;98070.28;18231351;32;19986;-52
2023/08/20 00:51:39;;;;;;;7.05;5.43;;;;;;;21.04;100.00;98062.88;18231905;32;20076;-53
2023/08/20 01:01:43;;;;;;;9.95;5.78;;;;;;;20.90;100.00;98077.63;18240505;32;20050;-52
2023/08/20 01:11:53;;;;;;;7.30;5.80;;;;;;;20.79;100.00;98090.91;18240760;32;20101;-50
2023/08/20 01:22:20;;;;;;;7.40;5.40;;;;;;;20.74;100.00;98090.28;18240154;32;20137;-54
2023/08/20 01:32:24;;;;;;;6.65;5.85;;;;;;;20.64;100.00;98092.19;18239460;32;20143;-52
2023/08/20 02:26:58;;;;;;;9.23;5.25;;;;;;;20.16;100.00;98126.16;18231730;32;20051;-54
2023/08/20 02:37:01;;;;;;;7.23;5.73;;;;;;;20.06;100.00;98127.28;18236809;32;20107;-50
2023/08/20 02:47:04;;;;;;;6.30;5.70;;;;;;;19.99;100.00;98124.19;18236102;32;20059;-52
2023/08/20 02:57:06;;;;;;;7.00;5.50;;;;;;;19.95;100.00;98109.50;18235707;32;20139;-53
2023/08/20 03:07:09;;;;;;;8.20;6.00;;;;;;;19.88;100.00;98109.16;18235178;32;20062;-53
2023/08/20 03:17:12;;;;;;;6.73;5.30;;;;;;;19.89;100.00;98114.34;18234780;32;20439;-50
2023/08/20 03:27:15;;;;;;;7.20;5.70;;;;;;;19.84;100.00;98110.94;18234144;32;20091;-52
2023/08/20 03:37:18;;;;;;;6.40;5.78;;;;;;;19.79;100.00;98098.16;18232307;32;20067;-54
2023/08/20 03:47:21;;;;;;;6.93;5.03;;;;;;;19.79;100.00;98092.69;18234196;32;20088;-52
2023/08/20 03:57:24;;;;;;;7.80;6.07;;;;;;;19.73;100.00;98104.91;18231841;32;20139;-52
2023/08/20 04:07:26;;;;;;;6.30;5.17;;;;;;;19.74;100.00;98114.78;18232562;32;20058;-52
2023/08/20 04:17:29;;;;;;;6.73;5.47;;;;;;;19.74;100.00;98110.09;18231893;32;20092;-53
2023/08/20 04:27:32;;;;;;;5.97;5.37;;;;;;;19.75;100.00;98105.41;18232840;32;20443;-53
2023/08/20 04:37:36;;;;;;;7.53;5.95;;;;;;;19.71;100.00;98104.44;18242354;32;20473;-50
2023/08/20 04:47:40;;;;;;;8.10;6.10;;;;;;;19.64;100.00;98121.38;18241361;32;20059;-51
2023/08/20 04:57:42;;;;;;;6.60;5.68;;;;;;;19.65;100.00;98117.47;18240849;32;20081;-52
2023/08/20 05:07:45;;;;;;;6.60;5.97;;;;;;;19.61;100.00;98116.50;18240562;32;20054;-51
2023/08/20 05:17:48;;;;;;;6.77;6.07;;;;;;;19.56;100.00;98130.38;18240538;32;20066;-53
2023/08/20 05:27:51;;;;;;;6.68;5.97;;;;;;;19.60;100.00;98159.59;18238324;32;20047;-52
2023/08/20 05:37:54;;;;;;;6.75;5.93;;;;;;;19.73;100.00;98162.53;18238860;32;20055;-53
2023/08/20 05:47:57;;;;;;;7.47;6.65;;;;;;;19.92;100.00;98176.81;18238573;32;20051;-49
2023/08/20 05:58:00;;;;;;;9.60;6.12;;;;;;;20.13;100.00;98179.78;18238594;32;20483;-50
2023/08/20 06:08:03;;;;;;;7.97;6.12;;;;;;;20.40;100.00;98180.59;18237842;32;20446;-52
2023/08/20 06:18:06;;;;;;;;;;;;;;;20.64;100.00;98188.38;18237569;32;20066;-54
2023/08/20 06:28:12;;;;;;;6.93;6.05;;;;;;;20.95;100.00;98201.16;18236951;32;19954;-51
2023/08/20 06:38:15;;;;;;;6.43;5.82;;;;;;;21.15;100.00;98198.84;18235617;32;20053;-53
2023/08/20 06:48:20;;;;;;;6.53;5.87;;;;;;;21.29;100.00;98204.16;18235468;32;20100;-51
2023/08/20 06:58:23;;;;;;;6.03;5.40;;;;;;;21.69;100.00;98214.06;18235689;32;20498;-54
2023/08/20 07:08:26;;;;;;;;;;;;;;;22.10;100.00;98220.84;18234240;32;20397;-55
2023/08/20 07:18:28;;;;;;;5.95;5.35;;;;;;;22.40;100.00;98234.63;18233707;32;19953;-53
2023/08/20 07:38:54;;;;;;;7.45;6.75;;;;;;;22.96;100.00;98235.13;18232774;32;20110;-54
2023/08/20 07:48:57;;;;;;;9.05;6.78;;;;;;;23.28;100.00;98234.69;18233085;32;20525;-52
2023/08/20 07:59:00;;;;;;;7.50;6.80;;;;;;;23.59;100.00;98239.72;18231573;32;20046;-52
2023/08/20 08:09:30;;;;;;;6.93;6.15;;;;;;;24.09;100.00;98251.66;18232125;32;20058;-55
2023/08/20 08:19:33;;;;;;;7.32;6.62;;;;;;;24.63;100.00;98247.78;18218364;32;20407;-54
2023/08/20 08:29:36;;;;;;;8.65;7.68;;;;;;;25.23;100.00;98252.66;18231483;32;20047;-55
2023/08/20 08:39:39;;;;;;;7.35;6.65;;;;;;;25.64;100.00;98253.38;18230633;32;20062;-54
2023/08/20 08:49:43;;;;;;;8.25;7.55;;;;;;;26.18;100.00;98260.25;18229389;32;20081;-54
2023/08/20 08:59:47;;;;;;;9.48;8.38;;;;;;;26.43;100.00;98267.56;18230297;32;20054;-55
2023/08/20 09:09:50;;;;;;;8.95;7.53;;;;;;;26.51;100.00;98266.56;18229323;32;20077;-54
2023/08/20 09:19:57;;;;;;;9.50;7.87;;;;;;;26.86;100.00;98257.41;18238453;32;20055;-55
2023/08/20 09:30:00;;;;;;;8.25;7.28;;;;;;;26.88;100.00;98266.19;18239402;32;20050;-55
2023/08/20 09:40:03;;;;;;;10.45;8.10;;;;;;;27.26;100.00;98255.44;18238863;32;20435;-56
2023/08/20 09:50:11;;;;;;;7.95;7.18;;;;;;;27.54;100.00;98257.97;18238470;32;20066;-55
2023/08/20 10:00:15;;;;;;;8.18;7.37;;;;;;;27.90;100.00;98253.84;18238526;32;20130;-55
2023/08/20 10:10:18;;;;;;;9.48;8.05;;;;;;;28.27;100.00;98255.25;18237414;32;20084;-55
2023/08/20 10:20:22;;;;;;;11.68;7.72;;;;;;;28.61;100.00;98246.19;18237185;32;20067;-55
2023/08/20 10:30:27;;;;;;;8.20;7.30;;;;;;;29.11;100.00;98243.25;18243210;32;20086;-55
2023/08/20 10:40:56;;;;;;;8.40;7.37;;;;;;;29.38;94.66;98236.44;18236657;32;20103;-55
2023/08/20 10:51:18;;;;;;;9.45;8.32;;;;;;;29.70;92.69;98240.72;18236009;32;20373;-55
2023/08/20 11:01:23;;;;;;;7.70;6.50;;;;;;;29.88;90.55;98224.19;18235799;32;20063;-55
2023/08/20 11:11:27;;;;;;;8.25;7.45;;;;;;;30.15;76.52;98224.78;18234496;32;20058;-55
2023/08/20 11:21:30;;;;;;;13.00;6.30;;;;;;;30.29;76.84;98223.25;18233076;32;20443;-55
2023/08/20 11:31:35;;;;;;;7.78;6.95;;;;;;;30.72;75.63;98224.31;18234085;32;20071;-56
2023/08/20 11:41:40;;;;;;;9.50;6.82;;;;;;;31.12;79.83;98218.13;18233345;32;20477;-56
2023/08/20 11:51:47;;;;;;;7.72;6.82;;;;;;;31.48;71.32;98212.59;18233098;32;20366;-56
2023/08/20 12:01:52;;;;;;;11.38;5.80;;;;;;;31.86;65.52;98201.87;18219083;32;20098;-55
2023/08/20 12:11:55;;;;;;;8.73;6.25;;;;;;;32.02;58.45;98195.88;18232475;32;20472;-56
2023/08/20 12:21:59;;;;;;;7.97;6.03;;;;;;;32.26;57.12;98183.88;18218286;32;20062;-56
2023/08/20 12:32:03;;;;;;;9.70;6.62;;;;;;;32.77;60.96;98178.91;18230326;32;20474;-56
2023/08/20 12:42:08;;;;;;;7.55;6.28;;;;;;;33.00;54.04;98174.00;18229778;32;20051;-56
2023/08/20 12:52:12;;;;;;;6.60;5.87;;;;;;;33.46;54.58;98172.13;18237003;32;20073;-57
2023/08/20 13:02:16;;;;;;;8.50;5.75;;;;;;;34.06;52.70;98162.41;18241458;32;20051;-57
2023/08/20 13:12:26;;;;;;;7.22;6.03;;;;;;;34.23;48.20;98157.00;18239398;32;20093;-56
2023/08/20 13:22:31;;;;;;;7.37;6.18;;;;;;;35.07;52.64;98151.97;18240043;32;20054;-57
2023/08/20 13:32:36;;;;;;;7.97;7.12;;;;;;;35.27;50.88;98143.66;18238042;32;20046;-57
2023/08/20 13:42:40;;;;;;;10.02;6.87;;;;;;;35.78;48.53;98152.09;18239363;32;20069;-57
2023/08/20 13:52:45;;;;;;;7.50;6.62;;;;;;;36.11;49.74;98139.06;18237755;32;20055;-57
2023/08/20 14:02:49;;;;;;;8.45;5.97;;;;;;;36.96;49.18;98140.56;18238429;32;20072;-56
2023/08/20 14:12:54;;;;;;;7.00;6.07;;;;;;;36.57;43.73;98136.56;18236705;32;20050;-56
2023/08/20 14:22:57;;;;;;;9.68;6.68;;;;;;;36.99;41.66;98130.47;18236187;32;20335;-57
2023/08/20 14:33:00;;;;;;;7.87;6.22;;;;;;;36.97;43.74;98130.09;18236654;32;20058;-56
2023/08/20 14:43:05;;;;;;;7.62;6.78;;;;;;;37.43;40.82;98124.63;18236381;32;20069;-56
2023/08/20 14:53:08;;;;;;;6.85;6.20;;;;;;;36.70;42.63;98116.16;18234982;32;20359;-55
2023/08/20 15:03:12;;;;;;;8.85;6.53;;;;;;;36.01;41.57;98111.91;18234432;32;20050;-55
2023/08/20 15:13:15;;;;;;;6.37;5.55;;;;;;;35.20;43.91;98101.63;18234788;32;20526;-56
2023/08/20 15:23:19;;;;;;;6.97;6.05;;;;;;;34.84;42.57;98096.53;18233586;32;20073;-55
2023/08/20 15:33:22;;;;;;;12.63;5.82;;;;;;;34.09;45.43;98097.03;18234023;32;20358;-56
2023/08/20 15:43:29;;;;;;;8.48;6.18;;;;;;;33.83;47.42;98095.69;18232510;32;20063;-56
2023/08/20 15:53:32;;;;;;;8.05;6.00;;;;;;;33.59;46.95;98089.91;18231774;32;20442;-55
2023/08/20 16:03:36;;;;;;;7.60;5.53;;;;;;;33.29;48.71;98093.38;18231703;32;20091;-56
2023/08/20 16:13:39;;;;;;;6.15;5.32;;;;;;;33.37;48.91;98105.31;18232381;32;20067;-56
2023/08/20 16:23:42;;;;;;;11.05;5.70;;;;;;;33.38;49.54;98104.09;18230731;32;20059;-56
2023/08/20 16:33:46;;;;;;;10.25;5.65;;;;;;;33.07;50.28;98098.31;18230676;32;20086;-57
2023/08/20 16:43:49;;;;;;;7.45;5.12;;;;;;;32.89;51.43;98093.63;18231037;32;20385;-56
2023/08/20 16:53:53;;;;;;;7.55;5.82;;;;;;;33.22;48.69;98099.00;18230788;32;20062;-56
2023/08/20 17:03:56;;;;;;;6.97;5.35;;;;;;;33.46;47.85;98100.03;18230197;32;20050;-56
2023/08/20 17:14:00;;;;;;;7.50;5.32;;;;;;;32.90;48.83;98092.41;18228457;32;20059;-56
2023/08/20 17:24:03;;;;;;;6.57;5.00;;;;;;;32.29;51.10;98092.72;18229390;32;20054;-56
2023/08/20 17:34:10;;;;;;;8.10;5.37;;;;;;;31.93;52.04;98110.37;18229380;32;20442;-56
2023/08/20 17:44:13;;;;;;;6.70;5.72;;;;;;;31.50;56.22;98116.00;18239230;32;20336;-55
2023/08/20 17:54:17;;;;;;;7.28;5.18;;;;;;;31.06;57.24;98108.78;18238753;32;20096;-57
2023/08/20 18:04:21;;;;;;;8.95;5.10;;;;;;;30.59;63.94;98131.78;18238100;32;20391;-56
2023/08/20 18:14:25;;;;;;;5.53;4.78;;;;;;;30.08;67.48;98133.50;18236514;32;20113;-55
2023/08/20 18:24:29;;;;;;;5.97;4.97;;;;;;;29.56;76.96;98135.50;18235920;32;20042;-56
2023/08/20 18:34:33;;;;;;;7.50;5.93;;;;;;;28.98;88.65;98136.94;18236637;32;20093;-55
2023/08/20 18:44:37;;;;;;;9.48;5.45;;;;;;;28.43;95.41;98134.69;18235856;32;20110;-55
2023/08/20 18:54:42;;;;;;;7.30;5.50;;;;;;;27.86;100.00;98152.12;18236053;32;20113;-55
2023/08/20 19:04:45;;;;;;;6.53;4.82;;;;;;;27.33;100.00;98164.75;18235812;32;20366;-55
2023/08/20 19:14:48;;;;;;;5.55;5.05;;;;;;;26.91;100.00;98170.31;18221466;32;20107;-55
2023/08/20 19:24:52;;;;;;;9.70;5.03;;;;;;;26.50;100.00;98192.84;18234722;32;20050;-56
2023/08/20 19:34:57;;;;;;;7.05;5.75;;;;;;;26.17;100.00;98202.44;18231832;32;20395;-56
2023/08/20 19:45:00;;;;;;;6.55;5.32;;;;;;;25.85;100.00;98205.22;18229904;32;20434;-55
2023/08/20 19:55:04;;;;;;;7.65;5.68;;;;;;;25.58;100.00;98216.03;18230818;32;20454;-55
2023/08/20 20:05:08;;;;;;;9.40;5.30;;;;;;;25.33;100.00;98216.19;18229847;32;20047;-55
2023/08/20 20:15:11;;;;;;;5.40;4.85;;;;;;;25.09;100.00;98213.50;18229701;32;20102;-55
2023/08/20 20:25:14;;;;;;;6.35;5.18;;;;;;;24.89;100.00;98220.84;18228296;32;20092;-55
2023/08/20 20:35:20;;;;;;;6.47;5.70;;;;;;;24.68;100.00;98216.31;18229944;32;20070;-55
2023/08/20 20:45:24;;;;;;;6.65;5.93;;;;;;;24.49;100.00;98222.47;18230949;32;20465;-55
2023/08/20 20:55:31;;;;;;;7.62;5.68;;;;;;;24.32;100.00;98237.34;18230428;32;20451;-54
2023/08/20 21:05:35;;;;;;;7.62;6.25;;;;;;;24.14;100.00;98251.41;18230799;32;20070;-55
2023/08/20 21:15:41;;;;;;;8.60;6.00;;;;;;;23.96;100.00;98242.53;18238518;32;20075;-55
2023/08/20 21:25:45;;;;;;;8.60;6.00;;;;;;;23.84;100.00;98248.84;18239931;32;20046;-55
2023/08/20 21:35:48;;;;;;;10.50;6.40;;;;;;;23.71;100.00;98251.91;18239498;32;20046;-54
2023/08/20 21:45:52;;;;;;;7.43;6.68;;;;;;;23.61;100.00;98245.72;18238784;32;20065;-55
2023/08/20 21:55:56;;;;;;;7.60;6.05;;;;;;;23.46;100.00;98241.66;18238704;32;20122;-55
2023/08/20 22:06:01;;;;;;;8.18;5.95;;;;;;;23.32;100.00;98247.50;18238269;32;20092;-54
2023/08/20 22:16:04;;;;;;;8.60;6.05;;;;;;;23.22;100.00;98256.19;18237610;32;20065;-54
2023/08/20 22:26:07;;;;;;;8.35;6.80;;;;;;;23.09;100.00;98258.06;18237048;32;20071;-54
2023/08/20 22:36:11;;;;;;;9.93;6.72;;;;;;;23.02;100.00;98268.81;18235441;32;20442;-52
2023/08/20 22:46:14;;;;;;;8.70;6.40;;;;;;;22.90;100.00;98269.59;18236460;32;20373;-55
2023/08/20 22:56:17;;;;;;;8.52;5.60;;;;;;;22.85;100.00;98264.28;18235944;32;20437;-55
2023/08/20 23:06:20;;;;;;;11.48;5.80;;;;;;;22.76;100.00;98269.88;18234399;32;20378;-55
2023/08/20 23:16:23;;;;;;;8.90;5.55;;;;;;;22.68;100.00;98266.03;18233987;32;20462;-55
2023/08/20 23:26:26;;;;;;;7.12;5.70;;;;;;;22.57;100.00;98267.56;18221085;32;20081;-55
2023/08/20 23:36:31;;;;;;;6.50;5.90;;;;;;;22.49;100.00;98265.69;18233707;32;20482;-55
2023/08/20 23:46:34;;;;;;;9.13;5.45;;;;;;;22.45;100.00;98259.22;18232995;32;20075;-55
2023/08/20 23:56:50;;;;;;;10.75;5.80;;;;;;;22.39;100.00;98257.78;18232509;32;20080;-55
